createdAt,value
2018-01-30T00:00:00.631Z,0
2018-01-30T00:00:40.959Z,0
2018-01-30T00:01:21.447Z,0
2018-01-30T00:02:01.854Z,0
2018-01-30T00:02:42.243Z,0
2018-01-30T00:03:22.563Z,0
2018-01-30T00:04:02.978Z,0
2018-01-30T00:04:43.378Z,0
2018-01-30T00:05:23.705Z,0
2018-01-30T00:06:04.190Z,0
2018-01-30T00:06:44.632Z,0
2018-01-30T00:07:25.061Z,0
2018-01-30T00:08:05.424Z,0
2018-01-30T00:08:45.781Z,0
2018-01-30T00:09:26.136Z,0
2018-01-30T00:10:06.616Z,0
2018-01-30T00:10:47.007Z,0
2018-01-30T00:11:27.385Z,0
2018-01-30T00:12:07.773Z,0
2018-01-30T00:12:48.189Z,0
2018-01-30T00:13:28.650Z,0
2018-01-30T00:14:09.085Z,0
2018-01-30T00:14:49.418Z,0
2018-01-30T00:15:29.828Z,0
2018-01-30T00:16:10.374Z,0
2018-01-30T00:16:50.698Z,0
2018-01-30T00:17:31.147Z,0
2018-01-30T00:18:11.496Z,0
2018-01-30T00:18:51.899Z,0
2018-01-30T00:19:32.408Z,0
2018-01-30T00:20:12.786Z,0
2018-01-30T00:20:53.201Z,0
2018-01-30T00:21:33.572Z,0
2018-01-30T00:22:14.062Z,0
2018-01-30T00:22:54.363Z,0
2018-01-30T00:23:34.785Z,0
2018-01-30T00:24:15.228Z,0
2018-01-30T00:24:55.599Z,0
2018-01-30T00:25:35.957Z,0
2018-01-30T00:26:16.379Z,0
2018-01-30T00:26:56.775Z,0
2018-01-30T00:27:37.253Z,0
2018-01-30T00:28:17.574Z,0
2018-01-30T00:28:58.029Z,0
2018-01-30T00:29:38.399Z,0
2018-01-30T00:30:18.764Z,0
2018-01-30T00:30:59.116Z,0
2018-01-30T00:31:39.526Z,0
2018-01-30T00:32:19.994Z,0
2018-01-30T00:33:00.354Z,0
2018-01-30T00:33:40.759Z,0
2018-01-30T00:34:21.155Z,0
2018-01-30T00:35:01.568Z,0
2018-01-30T00:35:41.959Z,0
2018-01-30T00:36:22.411Z,0
2018-01-30T00:37:02.830Z,0
2018-01-30T00:37:43.282Z,0
2018-01-30T00:38:23.662Z,0
2018-01-30T00:39:04.124Z,0
2018-01-30T00:39:44.586Z,0
2018-01-30T00:40:24.938Z,0
2018-01-30T00:41:05.317Z,0
2018-01-30T00:41:45.707Z,0
2018-01-30T00:42:26.104Z,0
2018-01-30T00:43:06.490Z,0
2018-01-30T00:43:46.901Z,0
2018-01-30T00:44:27.280Z,0
2018-01-30T00:45:07.678Z,0
2018-01-30T00:45:48.044Z,0
2018-01-30T00:46:28.437Z,0
2018-01-30T00:47:08.824Z,0
2018-01-30T00:47:49.314Z,0
2018-01-30T00:48:29.686Z,0
2018-01-30T00:49:10.065Z,0
2018-01-30T00:49:50.478Z,0
2018-01-30T00:50:30.877Z,0
2018-01-30T00:51:11.227Z,0
2018-01-30T00:51:51.630Z,0
2018-01-30T00:52:32.043Z,0
2018-01-30T00:53:12.494Z,0
2018-01-30T00:53:52.848Z,0
2018-01-30T00:54:33.223Z,0
2018-01-30T00:55:13.701Z,0
2018-01-30T00:55:54.096Z,0
2018-01-30T00:56:34.469Z,0
2018-01-30T00:57:14.822Z,0
2018-01-30T00:57:55.232Z,0
2018-01-30T00:58:35.741Z,0
2018-01-30T00:59:16.100Z,0
2018-01-30T00:59:56.452Z,0
2018-01-30T01:00:36.869Z,0
2018-01-30T01:01:17.274Z,0
2018-01-30T01:01:57.658Z,0
2018-01-30T01:02:38.075Z,0
2018-01-30T01:03:18.422Z,0
2018-01-30T01:03:58.812Z,0
2018-01-30T01:04:39.290Z,0
2018-01-30T01:05:19.651Z,0
2018-01-30T01:06:00.047Z,0
2018-01-30T01:06:40.472Z,0
2018-01-30T01:07:20.846Z,0
2018-01-30T01:08:01.223Z,0
2018-01-30T01:08:41.604Z,0
2018-01-30T01:09:21.972Z,0
2018-01-30T01:10:02.399Z,0
2018-01-30T01:10:42.806Z,0
2018-01-30T01:11:23.140Z,0
2018-01-30T01:12:03.533Z,0
2018-01-30T01:12:43.987Z,0
2018-01-30T01:13:24.340Z,0
2018-01-30T01:14:04.695Z,0
2018-01-30T01:14:45.133Z,0
2018-01-30T01:15:25.558Z,0
2018-01-30T01:16:05.923Z,0
2018-01-30T01:16:46.316Z,0
2018-01-30T01:17:26.679Z,0
2018-01-30T01:18:07.170Z,0
2018-01-30T01:18:47.558Z,0
2018-01-30T01:19:27.970Z,0
2018-01-30T01:20:08.322Z,0
2018-01-30T01:20:48.705Z,0
2018-01-30T01:21:29.113Z,0
2018-01-30T01:22:09.499Z,0
2018-01-30T01:22:49.905Z,0
2018-01-30T01:23:30.293Z,0
2018-01-30T01:24:10.732Z,0
2018-01-30T01:24:51.124Z,0
2018-01-30T01:25:31.489Z,0
2018-01-30T01:26:11.912Z,0
2018-01-30T01:26:52.271Z,0
2018-01-30T01:27:32.674Z,0
2018-01-30T01:28:13.090Z,0
2018-01-30T01:28:53.458Z,0
2018-01-30T01:29:33.901Z,0
2018-01-30T01:30:14.282Z,0
2018-01-30T01:30:54.700Z,0
2018-01-30T01:31:35.097Z,0
2018-01-30T01:32:15.477Z,0
2018-01-30T01:32:55.819Z,0
2018-01-30T01:33:36.219Z,0
2018-01-30T01:34:16.605Z,0
2018-01-30T01:34:57.056Z,0
2018-01-30T01:35:37.330Z,0
2018-01-30T01:36:17.774Z,0
2018-01-30T01:36:58.168Z,0
2018-01-30T01:37:38.575Z,0
2018-01-30T01:38:18.925Z,0
2018-01-30T01:38:59.420Z,0
2018-01-30T01:39:39.740Z,0
2018-01-30T01:40:20.112Z,0
2018-01-30T01:41:00.561Z,0
2018-01-30T01:41:40.962Z,0
2018-01-30T01:42:21.370Z,0
2018-01-30T01:43:01.726Z,0
2018-01-30T01:43:42.112Z,0
2018-01-30T01:44:22.553Z,0
2018-01-30T01:45:02.978Z,0
2018-01-30T01:45:43.356Z,0
2018-01-30T01:46:23.724Z,0
2018-01-30T01:47:04.183Z,0
2018-01-30T01:47:44.623Z,0
2018-01-30T01:48:25.001Z,0
2018-01-30T01:49:05.448Z,0
2018-01-30T01:49:45.779Z,0
2018-01-30T01:50:26.250Z,0
2018-01-30T01:51:06.678Z,0
2018-01-30T01:51:47.050Z,0
2018-01-30T01:52:27.496Z,0
2018-01-30T01:53:07.903Z,0
2018-01-30T01:53:48.267Z,0
2018-01-30T01:54:28.660Z,0
2018-01-30T01:55:09.045Z,0
2018-01-30T01:55:49.494Z,0
2018-01-30T01:56:29.843Z,0
2018-01-30T01:57:10.229Z,0
2018-01-30T01:57:50.693Z,0
2018-01-30T01:58:31.038Z,0
2018-01-30T01:59:11.430Z,0
2018-01-30T01:59:51.855Z,0
2018-01-30T02:00:32.294Z,0
2018-01-30T02:01:12.680Z,0
2018-01-30T02:01:53.056Z,0
2018-01-30T02:02:33.471Z,0
2018-01-30T02:03:13.872Z,0
2018-01-30T02:03:54.303Z,0
2018-01-30T02:04:34.640Z,0
2018-01-30T02:05:15.123Z,0
2018-01-30T02:05:55.455Z,0
2018-01-30T02:06:35.928Z,0
2018-01-30T02:07:16.308Z,0
2018-01-30T02:07:56.637Z,0
2018-01-30T02:08:37.105Z,0
2018-01-30T02:09:17.494Z,0
2018-01-30T02:09:57.863Z,0
2018-01-30T02:10:38.339Z,0
2018-01-30T02:11:18.691Z,0
2018-01-30T02:11:59.142Z,0
2018-01-30T02:12:39.548Z,0
2018-01-30T02:13:19.885Z,0
2018-01-30T02:14:00.360Z,0
2018-01-30T02:14:40.708Z,0
2018-01-30T02:15:21.177Z,0
2018-01-30T02:16:01.495Z,0
2018-01-30T02:16:41.939Z,0
2018-01-30T02:17:22.304Z,0
2018-01-30T02:18:02.716Z,0
2018-01-30T02:18:43.151Z,0
2018-01-30T02:19:23.522Z,0
2018-01-30T02:20:03.932Z,0
2018-01-30T02:20:44.324Z,0
2018-01-30T02:21:24.725Z,0
2018-01-30T02:22:05.076Z,0
2018-01-30T02:22:45.468Z,0
2018-01-30T02:23:25.907Z,0
2018-01-30T02:24:06.314Z,0
2018-01-30T02:24:46.709Z,0
2018-01-30T02:25:27.170Z,0
2018-01-30T02:26:07.583Z,0
2018-01-30T02:26:48.041Z,0
2018-01-30T02:27:28.531Z,0
2018-01-30T02:28:08.880Z,0
2018-01-30T02:28:49.310Z,0
2018-01-30T02:29:29.680Z,0
2018-01-30T02:30:10.021Z,0
2018-01-30T02:30:50.458Z,0
2018-01-30T02:31:30.848Z,0
2018-01-30T02:32:11.244Z,0
2018-01-30T02:32:51.625Z,0
2018-01-30T02:33:32.032Z,0
2018-01-30T02:34:12.387Z,0
2018-01-30T02:34:52.803Z,0
2018-01-30T02:35:33.205Z,0
2018-01-30T02:36:13.622Z,0
2018-01-30T02:36:53.986Z,0
2018-01-30T02:37:34.353Z,0
2018-01-30T02:38:14.859Z,0
2018-01-30T02:38:55.181Z,0
2018-01-30T02:39:35.558Z,0
2018-01-30T02:40:15.992Z,0
2018-01-30T02:40:56.314Z,0
2018-01-30T02:41:36.701Z,0
2018-01-30T02:42:17.135Z,0
2018-01-30T02:42:57.491Z,0
2018-01-30T02:43:37.904Z,0
2018-01-30T02:44:18.345Z,0
2018-01-30T02:44:58.736Z,0
2018-01-30T02:45:39.113Z,0
2018-01-30T02:46:19.541Z,0
2018-01-30T02:46:59.921Z,0
2018-01-30T02:47:40.317Z,0
2018-01-30T02:48:20.719Z,0
2018-01-30T02:49:01.076Z,0
2018-01-30T02:49:41.561Z,0
2018-01-30T02:50:21.906Z,0
2018-01-30T02:51:02.327Z,0
2018-01-30T02:51:42.747Z,0
2018-01-30T02:52:23.152Z,0
2018-01-30T02:53:03.561Z,0
2018-01-30T02:53:43.901Z,0
2018-01-30T02:54:24.391Z,0
2018-01-30T02:55:04.760Z,0
2018-01-30T02:55:45.155Z,0
2018-01-30T02:56:25.559Z,0
2018-01-30T02:57:05.902Z,0
2018-01-30T02:57:46.254Z,0
2018-01-30T02:58:26.641Z,0
2018-01-30T02:59:07.090Z,0
2018-01-30T02:59:47.460Z,0
2018-01-30T03:00:27.893Z,0
2018-01-30T03:01:08.211Z,0
2018-01-30T03:01:48.680Z,0
2018-01-30T03:02:28.978Z,0
2018-01-30T03:03:09.454Z,0
2018-01-30T03:03:49.828Z,0
2018-01-30T03:04:30.187Z,0
2018-01-30T03:05:10.599Z,0
2018-01-30T03:05:50.955Z,0
2018-01-30T03:06:31.378Z,0
2018-01-30T03:07:11.766Z,0
2018-01-30T03:07:52.188Z,0
2018-01-30T03:08:32.568Z,0
2018-01-30T03:09:12.926Z,0
2018-01-30T03:09:53.344Z,0
2018-01-30T03:10:33.794Z,0
2018-01-30T03:11:14.189Z,0
2018-01-30T03:11:54.614Z,0
2018-01-30T03:12:34.963Z,0
2018-01-30T03:13:15.442Z,0
2018-01-30T03:13:55.774Z,0
2018-01-30T03:14:36.224Z,0
2018-01-30T03:15:16.623Z,0
2018-01-30T03:15:57.040Z,0
2018-01-30T03:16:37.478Z,0
2018-01-30T03:17:17.872Z,0
2018-01-30T03:17:58.219Z,0
2018-01-30T03:18:38.592Z,0
2018-01-30T03:19:19.089Z,0
2018-01-30T03:19:59.444Z,0
2018-01-30T03:20:39.828Z,0
2018-01-30T03:21:20.187Z,0
2018-01-30T03:22:00.651Z,0
2018-01-30T03:22:41.012Z,0
2018-01-30T03:23:21.426Z,0
2018-01-30T03:24:01.840Z,0
2018-01-30T03:24:42.262Z,0
2018-01-30T03:25:22.578Z,0
2018-01-30T03:26:03.052Z,0
2018-01-30T03:26:43.444Z,0
2018-01-30T03:27:23.856Z,0
2018-01-30T03:28:04.250Z,0
2018-01-30T03:28:44.614Z,0
2018-01-30T03:29:25.004Z,0
2018-01-30T03:30:05.442Z,0
2018-01-30T03:30:45.787Z,0
2018-01-30T03:31:26.197Z,0
2018-01-30T03:32:06.623Z,0
2018-01-30T03:32:46.989Z,0
2018-01-30T03:33:27.350Z,0
2018-01-30T03:34:07.847Z,0
2018-01-30T03:34:48.196Z,0
2018-01-30T03:35:28.601Z,0
2018-01-30T03:36:09.023Z,0
2018-01-30T03:36:49.426Z,0
2018-01-30T03:37:29.820Z,0
2018-01-30T03:38:10.224Z,0
2018-01-30T03:38:50.549Z,0
2018-01-30T03:39:31.002Z,0
2018-01-30T03:40:11.406Z,0
2018-01-30T03:40:51.855Z,0
2018-01-30T03:41:32.252Z,0
2018-01-30T03:42:12.615Z,0
2018-01-30T03:42:53.062Z,0
2018-01-30T03:43:33.446Z,0
2018-01-30T03:44:13.831Z,0
2018-01-30T03:44:54.214Z,0
2018-01-30T03:45:34.598Z,0
2018-01-30T03:46:15.016Z,0
2018-01-30T03:46:55.390Z,0
2018-01-30T03:47:35.750Z,0
2018-01-30T03:48:16.132Z,0
2018-01-30T03:48:56.532Z,0
2018-01-30T03:49:36.911Z,0
2018-01-30T03:50:17.314Z,0
2018-01-30T03:50:57.689Z,0
2018-01-30T03:51:38.085Z,0
2018-01-30T03:52:18.517Z,0
2018-01-30T03:52:58.846Z,0
2018-01-30T03:53:39.257Z,0
2018-01-30T03:54:19.654Z,0
2018-01-30T03:55:00.034Z,0
2018-01-30T03:55:40.379Z,0
2018-01-30T03:56:20.824Z,0
2018-01-30T04:46:15.124Z,0
2018-01-30T06:01:48.448Z,0
2018-01-30T07:58:32.067Z,25
2018-01-30T07:59:20.796Z,25
2018-01-30T08:00:10.125Z,25
2018-01-30T08:01:00.447Z,25
2018-01-30T08:01:50.491Z,30
2018-01-30T08:06:06.580Z,30
2018-01-30T08:12:01.101Z,30
2018-01-30T08:12:50.646Z,30
2018-01-30T08:13:39.458Z,30
2018-01-30T08:14:28.212Z,35
2018-01-30T08:15:16.764Z,35
2018-01-30T08:19:30.027Z,35
2018-01-30T08:20:29.856Z,35
2018-01-30T08:21:24.812Z,35
2018-01-30T08:22:20.352Z,35
2018-01-30T08:23:18.527Z,35
2018-01-30T08:24:15.121Z,35
2018-01-30T08:32:32.289Z,45
2018-01-30T08:33:21.625Z,40
2018-01-30T08:34:10.488Z,40
2018-01-30T08:34:59.066Z,35
2018-01-30T08:35:47.977Z,40
2018-01-30T08:36:39.551Z,40
2018-01-30T08:39:00.810Z,40
2018-01-30T08:39:49.812Z,40
2018-01-30T08:40:38.501Z,45
2018-01-30T08:41:27.092Z,45
2018-01-30T08:42:17.343Z,45
2018-01-30T08:48:04.621Z,45
2018-01-30T08:48:54.497Z,45
2018-01-30T08:49:42.578Z,45
2018-01-30T08:50:31.660Z,45
2018-01-30T08:51:19.700Z,45
2018-01-30T08:53:54.260Z,45
2018-01-30T08:54:49.229Z,50
2018-01-30T08:55:45.854Z,50
2018-01-30T09:02:22.651Z,45
2018-01-30T09:06:40.178Z,45
2018-01-30T09:07:26.654Z,45
2018-01-30T09:08:08.019Z,45
2018-01-30T09:08:48.597Z,45
2018-01-30T09:09:29.375Z,45
2018-01-30T09:10:11.110Z,40
2018-01-30T09:13:37.064Z,45
2018-01-30T09:14:27.601Z,45
2018-01-30T09:15:16.478Z,45
2018-01-30T09:16:05.141Z,45
2018-01-30T09:16:54.335Z,45
2018-01-30T09:19:18.455Z,50
2018-01-30T09:20:06.654Z,50
2018-01-30T09:20:55.291Z,50
2018-01-30T09:21:44.112Z,50
2018-01-30T09:22:33.581Z,50
2018-01-30T09:47:45.767Z,45
2018-01-30T09:48:34.759Z,40
2018-01-30T09:53:27.814Z,50
2018-01-30T09:54:18.648Z,50
2018-01-30T09:55:07.234Z,50
2018-01-30T09:55:55.915Z,50
2018-01-30T09:56:45.415Z,50
2018-01-30T10:01:54.941Z,50
2018-01-30T10:02:43.213Z,50
2018-01-30T10:03:32.064Z,50
2018-01-30T10:04:22.292Z,50
2018-01-30T10:46:35.861Z,50
2018-01-30T10:47:30.134Z,55
2018-01-30T10:48:25.200Z,55
2018-01-30T10:49:23.957Z,60
2018-01-30T10:50:21.519Z,60
2018-01-30T10:51:16.948Z,55
2018-01-30T10:52:18.011Z,55
2018-01-30T10:57:06.789Z,50
2018-01-30T11:00:15.442Z,50
2018-01-30T11:01:11.521Z,50
2018-01-30T11:02:06.307Z,50
2018-01-30T11:03:03.035Z,45
2018-01-30T11:03:42.939Z,45
2018-01-30T11:04:23.429Z,40
2018-01-30T11:05:03.851Z,40
2018-01-30T11:05:44.226Z,40
2018-01-30T11:06:24.659Z,40
2018-01-30T11:07:05.297Z,40
2018-01-30T11:07:45.963Z,35
2018-01-30T11:08:26.486Z,40
2018-01-30T11:09:07.075Z,35
2018-01-30T11:09:47.706Z,35
2018-01-30T11:10:28.833Z,35
2018-01-30T11:11:08.829Z,35
2018-01-30T11:11:49.765Z,35
2018-01-30T11:12:30.257Z,35
2018-01-30T11:13:10.594Z,35
2018-01-30T11:13:51.309Z,35
2018-01-30T11:14:31.764Z,40
2018-01-30T11:15:12.246Z,45
2018-01-30T11:15:52.644Z,45
2018-01-30T11:16:33.719Z,40
2018-01-30T11:17:14.494Z,40
2018-01-30T11:17:55.370Z,40
2018-01-30T11:18:35.672Z,40
2018-01-30T11:19:16.243Z,45
2018-01-30T11:19:56.940Z,45
2018-01-30T11:20:37.363Z,50
2018-01-30T11:21:17.794Z,50
2018-01-30T11:21:59.678Z,45
2018-01-30T11:22:39.818Z,50
2018-01-30T11:23:22.977Z,50
2018-01-30T11:24:03.000Z,50
2018-01-30T11:26:39.563Z,55
2018-01-30T11:27:20.371Z,55
2018-01-30T11:28:00.800Z,55
2018-01-30T11:28:41.369Z,55
2018-01-30T11:29:22.115Z,50
2018-01-30T11:30:02.453Z,55
2018-01-30T11:30:42.862Z,50
2018-01-30T11:31:23.197Z,50
2018-01-30T11:32:03.807Z,50
2018-01-30T11:32:44.274Z,50
2018-01-30T11:33:24.738Z,45
2018-01-30T11:34:05.109Z,45
2018-01-30T11:34:45.573Z,45
2018-01-30T11:35:25.940Z,45
2018-01-30T11:36:06.450Z,45
2018-01-30T11:36:47.901Z,45
2018-01-30T11:37:28.392Z,45
2018-01-30T11:38:07.897Z,45
2018-01-30T11:38:51.403Z,45
2018-01-30T11:41:48.266Z,45
2018-01-30T11:44:20.684Z,45
2018-01-30T11:45:01.001Z,45
2018-01-30T11:45:42.026Z,45
2018-01-30T11:46:23.295Z,50
2018-01-30T11:47:05.878Z,50
2018-01-30T11:47:46.455Z,50
2018-01-30T11:48:30.951Z,50
2018-01-30T11:49:11.018Z,50
2018-01-30T11:49:51.628Z,50
2018-01-30T11:50:32.037Z,50
2018-01-30T11:51:12.731Z,50
2018-01-30T11:51:52.869Z,50
2018-01-30T11:52:33.244Z,55
2018-01-30T11:53:13.873Z,50
2018-01-30T11:53:54.889Z,55
2018-01-30T11:54:36.555Z,50
2018-01-30T11:55:17.064Z,55
2018-01-30T11:55:58.006Z,55
2018-01-30T11:56:39.114Z,55
2018-01-30T11:57:19.709Z,55
2018-01-30T11:58:01.235Z,50
2018-01-30T11:58:41.068Z,50
2018-01-30T11:59:23.264Z,50
2018-01-30T12:00:03.353Z,55
2018-01-30T12:00:44.980Z,50
2018-01-30T12:01:24.841Z,50
2018-01-30T12:02:05.506Z,50
2018-01-30T12:05:07.062Z,50
2018-01-30T12:06:08.378Z,50
2018-01-30T12:07:02.080Z,50
2018-01-30T12:07:56.023Z,45
2018-01-30T12:10:30.195Z,45
2018-01-30T12:11:22.685Z,45
2018-01-30T12:12:15.185Z,45
2018-01-30T12:13:09.068Z,45
2018-01-30T12:14:01.751Z,45
2018-01-30T12:14:53.881Z,45
2018-01-30T12:15:48.911Z,45
2018-01-30T12:16:35.313Z,45
2018-01-30T12:17:15.607Z,45
2018-01-30T12:17:56.593Z,45
2018-01-30T12:18:36.729Z,45
2018-01-30T12:19:17.958Z,45
2018-01-30T12:20:00.215Z,45
2018-01-30T12:20:42.110Z,45
2018-01-30T12:21:23.231Z,45
2018-01-30T12:22:03.675Z,45
2018-01-30T12:22:44.256Z,40
2018-01-30T12:23:25.709Z,40
2018-01-30T12:24:06.203Z,40
2018-01-30T12:24:46.532Z,40
2018-01-30T12:25:27.180Z,45
2018-01-30T12:26:07.676Z,45
2018-01-30T12:31:05.949Z,45
2018-01-30T12:31:59.583Z,45
2018-01-30T12:32:51.379Z,40
2018-01-30T12:37:38.926Z,45
2018-01-30T12:40:32.067Z,50
2018-01-30T12:41:13.318Z,50
2018-01-30T12:41:53.262Z,50
2018-01-30T12:42:34.398Z,50
2018-01-30T12:43:15.108Z,50
2018-01-30T12:43:55.532Z,50
2018-01-30T12:46:18.808Z,45
2018-01-30T12:47:06.701Z,45
2018-01-30T12:47:47.218Z,50
2018-01-30T12:48:28.077Z,45
2018-01-30T12:49:09.511Z,50
2018-01-30T12:49:50.249Z,50
2018-01-30T12:54:34.076Z,50
2018-01-30T12:55:23.001Z,45
2018-01-30T12:56:11.245Z,55
2018-01-30T12:57:00.123Z,50
2018-01-30T12:57:48.948Z,50
2018-01-30T13:00:48.612Z,50
2018-01-30T13:01:28.838Z,50
2018-01-30T13:02:09.261Z,50
2018-01-30T13:02:49.646Z,50
2018-01-30T13:03:30.309Z,50
2018-01-30T13:04:10.839Z,50
2018-01-30T13:04:51.231Z,45
2018-01-30T13:05:31.802Z,45
2018-01-30T13:06:13.649Z,50
2018-01-30T13:06:53.709Z,45
2018-01-30T13:07:34.038Z,40
2018-01-30T13:08:14.491Z,50
2018-01-30T13:09:01.944Z,50
2018-01-30T13:11:37.081Z,50
2018-01-30T13:12:25.911Z,45
2018-01-30T13:13:07.904Z,45
2018-01-30T13:13:47.807Z,50
2018-01-30T13:14:31.541Z,50
2018-01-30T13:15:11.824Z,45
2018-01-30T13:15:52.444Z,50
2018-01-30T13:16:32.940Z,50
2018-01-30T13:17:13.406Z,50
2018-01-30T13:17:53.766Z,50
2018-01-30T13:18:34.195Z,50
2018-01-30T13:19:14.663Z,50
2018-01-30T13:19:55.004Z,50
2018-01-30T13:20:35.578Z,50
2018-01-30T13:21:15.957Z,50
2018-01-30T13:21:56.650Z,50
2018-01-30T13:22:37.924Z,50
2018-01-30T13:23:18.359Z,50
2018-01-30T13:23:58.735Z,45
2018-01-30T13:24:50.747Z,45
2018-01-30T13:25:31.172Z,45
2018-01-30T13:26:13.264Z,45
2018-01-30T13:26:53.353Z,45
2018-01-30T13:27:49.566Z,45
2018-01-30T13:28:37.088Z,45
2018-01-30T13:29:18.127Z,45
2018-01-30T13:29:59.006Z,45
2018-01-30T13:30:39.469Z,45
2018-01-30T13:31:34.997Z,45
2018-01-30T13:32:16.739Z,40
2018-01-30T13:32:56.653Z,40
2018-01-30T13:33:37.235Z,45
2018-01-30T13:34:17.752Z,45
2018-01-30T13:34:58.215Z,45
2018-01-30T13:35:39.133Z,45
2018-01-30T13:36:19.409Z,40
2018-01-30T13:37:00.424Z,40
2018-01-30T13:37:40.788Z,40
2018-01-30T13:38:21.278Z,40
2018-01-30T13:44:05.758Z,40
2018-01-30T13:51:29.922Z,40
2018-01-30T13:52:30.365Z,40
2018-01-30T13:53:13.397Z,40
2018-01-30T13:58:22.585Z,40
2018-01-30T13:59:03.076Z,40
2018-01-30T14:02:13.395Z,40
2018-01-30T14:04:40.156Z,40
2018-01-30T14:05:21.971Z,40
2018-01-30T14:06:01.836Z,40
2018-01-30T14:06:44.056Z,40
2018-01-30T14:15:18.122Z,40
2018-01-30T14:16:12.102Z,40
2018-01-30T14:17:00.313Z,40
2018-01-30T14:17:40.866Z,40
2018-01-30T14:18:21.736Z,40
2018-01-30T14:19:02.243Z,40
2018-01-30T14:19:42.700Z,40
2018-01-30T14:20:23.141Z,40
2018-01-30T14:21:04.402Z,40
2018-01-30T14:26:30.889Z,35
2018-01-30T14:27:22.013Z,35
2018-01-30T14:28:12.295Z,35
2018-01-30T14:28:59.364Z,35
2018-01-30T14:29:47.696Z,35
2018-01-30T14:32:52.835Z,30
2018-01-30T14:33:47.968Z,30
2018-01-30T14:34:58.536Z,30
2018-01-30T14:35:52.528Z,30
2018-01-30T14:46:26.415Z,30
2018-01-30T14:47:18.596Z,30
2018-01-30T14:48:09.039Z,30
2018-01-30T14:50:39.246Z,30
2018-01-30T14:51:32.229Z,30
2018-01-30T14:52:26.478Z,30
2018-01-30T14:53:18.339Z,30
2018-01-30T14:55:48.717Z,25
2018-01-30T14:56:28.647Z,25
2018-01-30T14:57:09.875Z,30
2018-01-30T14:57:50.451Z,30
2018-01-30T14:58:31.417Z,30
2018-01-30T14:59:13.865Z,30
2018-01-30T14:59:54.791Z,30
2018-01-30T15:00:34.851Z,30
2018-01-30T15:03:13.382Z,30
2018-01-30T15:06:08.600Z,20
2018-01-30T15:06:48.156Z,25
2018-01-30T15:07:28.853Z,25
2018-01-30T15:08:09.341Z,30
2018-01-30T15:08:50.760Z,30
2018-01-30T15:09:30.763Z,30
2018-01-30T15:10:18.125Z,30
2018-01-30T15:10:58.668Z,30
2018-01-30T15:11:39.185Z,30
2018-01-30T15:12:24.000Z,30
2018-01-30T15:13:03.733Z,30
2018-01-30T15:13:58.841Z,30
2018-01-30T15:14:39.501Z,30
2018-01-30T15:15:20.348Z,30
2018-01-30T15:16:01.037Z,35
2018-01-30T15:16:41.574Z,35
2018-01-30T15:17:23.145Z,35
2018-01-30T15:18:03.664Z,35
2018-01-30T15:18:44.091Z,35
2018-01-30T15:19:24.601Z,35
2018-01-30T15:20:06.053Z,40
2018-01-30T15:20:47.383Z,35
2018-01-30T15:21:27.900Z,35
2018-01-30T15:22:08.431Z,30
2018-01-30T15:22:49.132Z,25
2018-01-30T15:26:54.008Z,15
2018-01-30T15:27:36.933Z,15
2018-01-30T15:28:17.537Z,15
2018-01-30T15:28:58.068Z,15
2018-01-30T15:29:38.477Z,15
2018-01-30T15:30:19.673Z,15
2018-01-30T15:31:00.130Z,15
2018-01-30T15:31:40.634Z,15
2018-01-30T15:32:21.060Z,15
2018-01-30T15:33:01.478Z,15
2018-01-30T15:33:42.059Z,15
2018-01-30T15:34:22.582Z,10
2018-01-30T15:35:02.935Z,10
2018-01-30T15:35:43.391Z,10
2018-01-30T15:36:23.962Z,10
2018-01-30T15:37:04.629Z,10
2018-01-30T15:37:45.124Z,10
2018-01-30T15:38:25.567Z,10
2018-01-30T15:39:06.277Z,10
2018-01-30T15:39:46.697Z,10
2018-01-30T15:40:27.091Z,10
2018-01-30T15:41:07.900Z,10
2018-01-30T15:41:50.033Z,10
2018-01-30T15:42:30.118Z,10
2018-01-30T15:43:11.522Z,10
2018-01-30T15:43:51.800Z,10
2018-01-30T15:44:32.387Z,10
2018-01-30T15:45:14.040Z,10
2018-01-30T15:45:54.967Z,10
2018-01-30T15:46:35.512Z,10
2018-01-30T15:47:17.171Z,10
2018-01-30T15:47:58.515Z,5
2018-01-30T15:48:38.523Z,5
2018-01-30T15:49:19.029Z,5
2018-01-30T15:49:59.392Z,5
2018-01-30T15:50:39.793Z,5
2018-01-30T15:51:26.894Z,5
2018-01-30T15:52:03.139Z,5
2018-01-30T15:52:43.991Z,5
2018-01-30T15:53:26.626Z,5
2018-01-30T15:54:07.891Z,5
2018-01-30T15:54:48.472Z,5
2018-01-30T15:55:29.244Z,5
2018-01-30T15:56:11.380Z,5
2018-01-30T15:56:51.876Z,5
2018-01-30T15:57:33.545Z,5
2018-01-30T16:43:38.653Z,0
2018-01-30T16:44:27.760Z,0
2018-01-30T16:45:16.779Z,0
2018-01-30T16:46:05.572Z,0
2018-01-30T16:46:56.246Z,0
2018-01-30T16:49:41.670Z,0
2018-01-30T16:50:29.842Z,0
2018-01-30T16:51:18.943Z,0
2018-01-30T16:52:07.487Z,0
2018-01-30T16:52:56.492Z,0
2018-01-30T16:57:26.845Z,0
2018-01-30T16:58:17.549Z,0
2018-01-30T16:59:05.192Z,0
2018-01-30T16:59:54.148Z,0
2018-01-30T17:00:45.976Z,0
2018-01-30T17:03:41.361Z,0
2018-01-30T17:04:31.112Z,0
2018-01-30T17:05:22.276Z,0
2018-01-30T17:06:10.900Z,0
2018-01-30T17:07:00.148Z,0
2018-01-30T17:15:11.607Z,0
2018-01-30T18:30:07.682Z,0
2018-01-30T18:30:47.956Z,0
2018-01-30T18:31:31.624Z,0
2018-01-30T18:32:11.955Z,0
2018-01-30T18:32:52.326Z,0
2018-01-30T18:33:32.762Z,0
2018-01-30T18:34:13.148Z,0
2018-01-30T18:34:53.614Z,0
2018-01-30T18:35:34.042Z,0
2018-01-30T18:36:14.484Z,0
2018-01-30T18:36:54.871Z,0
2018-01-30T18:37:35.336Z,0
2018-01-30T18:38:15.758Z,0
2018-01-30T18:38:56.101Z,0
2018-01-30T18:39:36.439Z,0
2018-01-30T18:52:26.048Z,0
2018-01-30T18:53:18.223Z,0
2018-01-30T18:54:04.761Z,0
2018-01-30T18:54:45.162Z,0
2018-01-30T18:55:25.586Z,0
2018-01-30T18:56:05.989Z,0
2018-01-30T18:56:46.501Z,0
2018-01-30T18:57:26.995Z,0
2018-01-30T18:58:07.282Z,0
2018-01-30T18:58:47.901Z,0
2018-01-30T18:59:28.269Z,0
2018-01-30T19:00:08.739Z,0
2018-01-30T19:00:49.133Z,0
2018-01-30T19:01:29.608Z,0
2018-01-30T19:02:10.078Z,0
2018-01-30T19:02:50.567Z,0
2018-01-30T19:03:31.018Z,0
2018-01-30T19:04:11.499Z,0
2018-01-30T19:04:51.984Z,0
2018-01-30T19:05:32.366Z,0
2018-01-30T19:06:12.777Z,0
2018-01-30T19:06:53.221Z,0
2018-01-30T19:07:33.597Z,0
2018-01-30T19:08:14.024Z,0
2018-01-30T19:08:54.390Z,0
2018-01-30T19:09:34.800Z,0
2018-01-30T19:10:15.189Z,0
2018-01-30T19:10:55.627Z,0
2018-01-30T19:11:36.008Z,0
2018-01-30T19:12:16.441Z,0
2018-01-30T19:12:56.828Z,0
2018-01-30T19:13:37.284Z,0
2018-01-30T19:14:17.667Z,0
2018-01-30T19:14:58.102Z,0
2018-01-30T19:15:38.533Z,0
2018-01-30T19:16:19.012Z,0
2018-01-30T19:16:59.346Z,0
2018-01-30T19:17:39.749Z,0
2018-01-30T19:18:20.154Z,0
2018-01-30T19:19:00.641Z,0
2018-01-30T19:19:41.049Z,0
2018-01-30T19:20:21.464Z,0
2018-01-30T19:21:01.989Z,0
2018-01-30T19:21:42.468Z,0
2018-01-30T19:22:22.853Z,0
